createdAt,value
2023-08-12T00:02:01.787Z,99696.94
2023-08-12T00:04:28.791Z,99689.25
2023-08-12T00:06:55.733Z,99687.50
2023-08-12T00:09:22.559Z,99683.34
2023-08-12T00:11:49.620Z,99684.91
2023-08-12T00:14:16.489Z,99685.22
2023-08-12T00:16:43.502Z,99692.09
2023-08-12T00:19:10.417Z,99693.63
2023-08-12T00:21:37.459Z,99704.22
2023-08-12T00:24:04.618Z,99698.00
2023-08-12T00:26:31.553Z,99695.44
2023-08-12T00:28:58.300Z,99700.16
2023-08-12T00:31:25.479Z,99706.16
2023-08-12T00:33:52.258Z,99695.03
2023-08-12T00:36:19.340Z,99694.81
2023-08-12T00:38:46.160Z,99699.53
2023-08-12T00:41:13.082Z,99698.44
2023-08-12T00:43:39.952Z,99698.44
2023-08-12T00:46:07.004Z,99694.41
2023-08-12T00:48:34.052Z,99689.47
2023-08-12T00:51:01.045Z,99690.03
2023-08-12T00:53:28.336Z,99688.63
2023-08-12T00:55:56.189Z,99685.19
2023-08-12T00:58:23.314Z,99699.22
2023-08-12T01:00:51.467Z,99688.63
2023-08-12T01:03:19.097Z,99684.75
2023-08-12T01:05:47.582Z,99687.75
2023-08-12T01:08:14.630Z,99694.72
2023-08-12T01:10:48.561Z,99690.63
2023-08-12T01:13:32.385Z,99702.94
2023-08-12T01:16:02.054Z,99690.63
2023-08-12T01:18:29.426Z,99701.22
2023-08-12T01:20:57.047Z,99690.09
2023-08-12T01:23:23.832Z,99692.47
2023-08-12T01:25:50.713Z,99692.47
2023-08-12T01:28:17.620Z,99690.00
2023-08-12T01:31:16.389Z,99693.63
2023-08-12T01:34:08.215Z,99696.09
2023-08-12T01:36:37.989Z,99705.19
2023-08-12T01:39:06.834Z,99695.47
2023-08-12T01:41:33.861Z,99700.94
2023-08-12T01:44:03.107Z,99695.50
2023-08-12T01:46:30.505Z,99694.00
2023-08-12T01:48:57.481Z,99695.81
2023-08-12T01:51:24.390Z,99697.19
2023-08-12T01:53:51.297Z,99693.47
2023-08-12T01:56:18.208Z,99693.56
2023-08-12T01:58:45.100Z,99691.00
2023-08-12T02:01:12.236Z,99694.97
2023-08-12T02:03:40.241Z,99695.34
2023-08-12T02:06:07.515Z,99688.97
2023-08-12T02:08:34.886Z,99686.94
2023-08-12T02:11:01.818Z,99700.41
2023-08-12T02:13:29.044Z,99700.59
2023-08-12T02:15:55.900Z,99701.13
2023-08-12T02:18:23.329Z,99705.53
2023-08-12T02:20:50.158Z,99702.03
2023-08-12T02:23:17.147Z,99701.81
2023-08-12T02:25:44.036Z,99704.19
2023-08-12T02:28:10.941Z,99698.72
2023-08-12T02:30:37.661Z,99706.28
2023-08-12T02:33:04.812Z,99701.03
2023-08-12T02:35:31.869Z,99698.47
2023-08-12T02:37:58.691Z,99690.63
2023-08-12T02:40:25.500Z,99688.53
2023-08-12T02:42:52.347Z,99684.44
2023-08-12T02:45:19.245Z,99692.13
2023-08-12T02:47:46.211Z,99692.25
2023-08-12T02:50:12.954Z,99698.44
2023-08-12T02:52:39.873Z,99696.47
2023-08-12T02:55:07.032Z,99693.63
2023-08-12T02:57:33.973Z,99697.69
2023-08-12T03:00:00.774Z,99701.28
2023-08-12T03:02:27.709Z,99690.41
2023-08-12T03:04:55.469Z,99694.91
2023-08-12T03:07:22.332Z,99697.38
2023-08-12T03:09:49.232Z,99703.47
2023-08-12T03:12:16.110Z,99704.63
2023-08-12T03:14:42.885Z,99696.63
2023-08-12T03:17:11.129Z,99693.88
2023-08-12T03:19:38.315Z,99699.19
2023-08-12T03:22:06.127Z,99702.53
2023-08-12T03:24:33.565Z,99704.47
2023-08-12T03:27:01.041Z,99700.56
2023-08-12T03:29:28.045Z,99697.09
2023-08-12T03:31:55.021Z,99707.34
2023-08-12T03:34:23.219Z,99692.94
2023-08-12T03:36:51.424Z,99694.25
2023-08-12T03:39:19.775Z,99693.16
2023-08-12T03:41:47.464Z,99695.19
2023-08-12T03:44:15.236Z,99702.00
2023-08-12T03:46:42.196Z,99699.84
2023-08-12T03:49:09.624Z,99698.59
2023-08-12T03:51:36.639Z,99691.47
2023-08-12T03:54:03.577Z,99693.72
2023-08-12T03:56:30.888Z,99691.78
2023-08-12T03:58:59.091Z,99697.91
2023-08-12T04:01:25.992Z,99699.34
2023-08-12T04:03:52.899Z,99688.22
2023-08-12T04:06:19.920Z,99694.41
2023-08-12T04:08:46.827Z,99694.81
2023-08-12T04:11:13.639Z,99692.47
2023-08-12T04:13:41.475Z,99688.56
2023-08-12T04:16:08.362Z,99681.84
2023-08-12T04:18:35.112Z,99677.34
2023-08-12T04:21:02.597Z,99678.44
2023-08-12T04:23:29.532Z,99676.09
2023-08-12T04:25:57.560Z,99679.00
2023-08-12T04:28:27.433Z,99684.41
2023-08-12T04:30:54.377Z,99680.53
2023-08-12T04:33:23.898Z,99686.78
2023-08-12T04:35:51.340Z,99679.75
2023-08-12T04:38:19.405Z,99676.34
2023-08-12T04:40:48.331Z,99684.38
2023-08-12T04:43:15.463Z,99679.94
2023-08-12T04:45:47.046Z,99667.06
2023-08-12T04:48:14.669Z,99670.72
2023-08-12T04:50:43.697Z,99668.66
2023-08-12T04:53:10.723Z,99674.88
2023-08-12T04:55:37.644Z,99679.41
2023-08-12T04:58:05.776Z,99677.63
2023-08-12T05:00:33.669Z,99678.69
2023-08-12T05:03:00.759Z,99681.00
2023-08-12T05:05:28.250Z,99682.06
2023-08-12T05:07:55.365Z,99683.13
2023-08-12T05:10:22.991Z,99672.63
2023-08-12T05:12:53.403Z,99667.03
2023-08-12T05:15:20.443Z,99670.25
2023-08-12T05:17:48.373Z,99669.25
2023-08-12T05:20:18.933Z,99675.00
2023-08-12T05:22:45.741Z,99676.69
2023-08-12T05:25:12.632Z,99676.84
2023-08-12T05:27:39.933Z,99682.94
2023-08-12T05:30:07.530Z,99681.34
2023-08-12T05:32:34.387Z,99680.47
2023-08-12T05:35:01.503Z,99677.69
2023-08-12T05:37:28.345Z,99669.88
2023-08-12T05:39:55.237Z,99671.16
2023-08-12T05:42:22.084Z,99667.47
2023-08-12T05:44:48.869Z,99670.88
2023-08-12T05:47:15.828Z,99673.25
2023-08-12T05:49:43.603Z,99677.56
2023-08-12T05:52:10.895Z,99676.88
2023-08-12T05:54:38.387Z,99690.50
2023-08-12T05:57:05.534Z,99687.81
2023-08-12T05:59:32.396Z,99683.03
2023-08-12T06:01:59.141Z,99694.66
2023-08-12T06:04:26.121Z,99686.59
2023-08-12T06:06:52.917Z,99691.41
2023-08-12T06:09:19.820Z,99681.97
2023-08-12T06:11:46.676Z,99686.72
2023-08-12T06:14:13.543Z,99693.47
2023-08-12T06:16:40.545Z,99685.84
2023-08-12T06:19:07.482Z,99699.91
2023-08-12T06:21:34.279Z,99699.34
2023-08-12T06:24:01.041Z,99699.66
2023-08-12T06:26:27.862Z,99702.34
2023-08-12T06:28:54.724Z,99699.00
2023-08-12T06:31:21.528Z,99696.47
2023-08-12T06:33:48.390Z,99694.97
2023-08-12T06:36:15.241Z,99696.53
2023-08-12T06:38:42.045Z,99696.38
2023-08-12T06:41:08.817Z,99692.38
2023-08-12T06:43:36.426Z,99687.06
2023-08-12T06:46:03.853Z,99679.44
2023-08-12T06:48:30.780Z,99683.88
2023-08-12T06:50:57.828Z,99674.88
2023-08-12T06:53:26.202Z,99679.44
2023-08-12T06:55:53.028Z,99680.59
2023-08-12T06:58:19.884Z,99674.94
2023-08-12T07:00:46.708Z,99665.09
2023-08-12T07:03:13.671Z,99666.97
2023-08-12T07:05:40.624Z,99666.56
2023-08-12T07:08:07.519Z,99669.50
2023-08-12T07:10:34.329Z,99663.59
2023-08-12T07:13:01.197Z,99664.03
2023-08-12T07:15:28.026Z,99669.03
2023-08-12T07:17:54.931Z,99667.91
2023-08-12T07:20:21.751Z,99668.41
2023-08-12T07:22:48.598Z,99659.09
2023-08-12T07:25:15.552Z,99651.38
2023-08-12T07:27:42.429Z,99656.19
2023-08-12T07:30:10.329Z,99652.91
2023-08-12T07:32:39.048Z,99655.09
2023-08-12T07:35:06.998Z,99651.22
2023-08-12T07:37:34.050Z,99658.47
2023-08-12T07:40:01.075Z,99658.31
2023-08-12T07:42:27.954Z,99652.44
2023-08-12T07:44:54.815Z,99652.69
2023-08-12T07:47:21.784Z,99650.03
2023-08-12T07:49:48.673Z,99648.81
2023-08-12T07:52:15.497Z,99648.88
2023-08-12T07:54:42.604Z,99644.66
2023-08-12T07:57:09.407Z,99652.63
2023-08-12T07:59:36.228Z,99646.50
2023-08-12T08:02:03.164Z,99655.34
2023-08-12T08:04:30.144Z,99646.25
2023-08-12T08:06:57.023Z,99644.91
2023-08-12T08:09:23.862Z,99643.56
2023-08-12T08:11:50.859Z,99652.19
2023-08-12T08:14:17.695Z,99649.53
2023-08-12T08:16:44.582Z,99646.75
2023-08-12T08:19:13.327Z,99647.00
2023-08-12T08:21:41.128Z,99643.78
2023-08-12T08:24:09.549Z,99638.63
2023-08-12T08:26:36.441Z,99638.72
2023-08-12T08:29:03.302Z,99632.00
2023-08-12T08:31:30.125Z,99641.25
2023-08-12T08:33:56.984Z,99640.22
2023-08-12T08:36:24.218Z,99639.97
2023-08-12T08:38:51.107Z,99629.19
2023-08-12T08:41:18.447Z,99621.19
2023-08-12T08:43:48.826Z,99626.00
2023-08-12T08:46:17.276Z,99633.84
2023-08-12T08:48:45.009Z,99640.19
2023-08-12T08:51:12.770Z,99635.97
2023-08-12T08:53:40.499Z,99634.53
2023-08-12T08:56:15.843Z,99631.16
2023-08-12T08:58:42.927Z,99631.13
2023-08-12T09:01:10.327Z,99643.19
2023-08-12T09:03:39.169Z,99643.09
2023-08-12T09:06:06.677Z,99631.94
2023-08-12T09:08:35.084Z,99630.63
2023-08-12T09:11:03.436Z,99633.88
2023-08-12T09:13:31.131Z,99628.53
2023-08-12T09:15:58.559Z,99627.13
2023-08-12T09:18:27.745Z,99633.84
2023-08-12T09:20:55.528Z,99627.78
2023-08-12T09:23:22.344Z,99627.34
2023-08-12T09:25:49.692Z,99642.59
2023-08-12T09:28:16.816Z,99634.81
2023-08-12T09:30:51.287Z,99635.47
2023-08-12T09:33:27.798Z,99633.72
2023-08-12T09:35:57.901Z,99625.97
2023-08-12T09:38:24.969Z,99633.03
2023-08-12T09:40:54.073Z,99625.75
2023-08-12T09:43:25.745Z,99625.50
2023-08-12T09:45:57.980Z,99627.50
2023-08-12T09:48:25.367Z,99626.53
2023-08-12T09:50:53.860Z,99636.22
2023-08-12T09:53:23.205Z,99628.91
2023-08-12T09:55:53.573Z,99623.66
2023-08-12T09:58:25.289Z,99621.81
2023-08-12T10:00:52.966Z,99628.22
2023-08-12T10:03:21.525Z,99632.44
2023-08-12T10:05:48.958Z,99632.41
2023-08-12T10:08:16.312Z,99645.25
2023-08-12T10:10:45.870Z,99637.63
2023-08-12T10:13:13.416Z,99646.88
2023-08-12T10:15:41.254Z,99643.50
2023-08-12T10:18:11.828Z,99640.41
2023-08-12T10:20:40.568Z,99640.31
2023-08-12T10:23:09.206Z,99629.53
2023-08-12T10:25:39.257Z,99630.34
2023-08-12T10:28:06.479Z,99632.84
2023-08-12T10:30:35.961Z,99637.03
2023-08-12T10:33:04.434Z,99637.94
2023-08-12T10:35:45.440Z,99640.56
2023-08-12T10:38:14.765Z,99644.59
2023-08-12T10:40:42.301Z,99655.47
2023-08-12T10:43:09.451Z,99653.63
2023-08-12T10:45:51.215Z,99656.16
2023-08-12T10:48:26.208Z,99648.47
2023-08-12T10:50:56.086Z,99640.44
2023-08-12T10:53:32.920Z,99636.13
2023-08-12T10:56:04.650Z,99634.69
2023-08-12T10:58:46.357Z,99637.31
2023-08-12T11:01:20.021Z,99642.06
2023-08-12T11:03:49.209Z,99647.59
2023-08-12T11:06:16.164Z,99640.94
2023-08-12T11:08:53.588Z,99641.88
2023-08-12T11:11:22.323Z,99645.44
2023-08-12T11:14:00.145Z,99643.91
2023-08-12T11:16:37.641Z,99648.78
2023-08-12T11:19:05.738Z,99653.28
2023-08-12T11:21:33.214Z,99664.44
2023-08-12T11:24:01.072Z,99656.78
2023-08-12T11:26:27.852Z,99661.66
2023-08-12T11:28:54.811Z,99663.97
2023-08-12T11:31:23.561Z,99663.81
2023-08-12T11:33:50.626Z,99661.69
2023-08-12T11:36:17.955Z,99662.75
2023-08-12T11:38:45.159Z,99660.19
2023-08-12T11:41:13.066Z,99656.72
2023-08-12T11:43:39.878Z,99652.22
2023-08-12T11:46:06.769Z,99651.31
2023-08-12T11:48:33.929Z,99646.38
2023-08-12T11:51:01.160Z,99646.88
2023-08-12T11:53:28.469Z,99640.59
2023-08-12T11:55:55.499Z,99636.84
2023-08-12T11:58:24.389Z,99648.91
2023-08-12T12:00:52.742Z,99643.22
2023-08-12T12:03:19.715Z,99643.88
2023-08-12T12:05:47.844Z,99644.91
2023-08-12T12:08:15.310Z,99640.81
2023-08-12T12:10:42.450Z,99635.66
2023-08-12T12:13:12.118Z,99629.41
2023-08-12T12:15:45.407Z,99636.34
2023-08-12T12:18:13.916Z,99643.75
2023-08-12T12:20:56.870Z,99634.63
2023-08-12T12:23:29.503Z,99643.56
2023-08-12T12:26:03.940Z,99639.03
2023-08-12T12:28:31.610Z,99637.44
2023-08-12T12:30:58.460Z,99637.22
2023-08-12T12:33:25.425Z,99636.63
2023-08-12T12:35:58.866Z,99639.34
2023-08-12T12:38:28.057Z,99643.75
2023-08-12T12:40:55.008Z,99643.09
2023-08-12T12:43:21.894Z,99641.84
2023-08-12T12:45:48.711Z,99635.88
2023-08-12T12:48:15.665Z,99641.19
2023-08-12T12:50:42.505Z,99635.34
2023-08-12T12:53:09.315Z,99633.22
2023-08-12T12:55:36.292Z,99628.13
2023-08-12T12:58:03.220Z,99625.66
2023-08-12T13:00:31.016Z,99628.03
2023-08-12T13:02:57.892Z,99623.56
2023-08-12T13:05:24.846Z,99621.13
2023-08-12T13:07:51.674Z,99622.97
2023-08-12T13:10:18.618Z,99615.50
2023-08-12T13:12:45.471Z,99618.09
2023-08-12T13:15:13.022Z,99618.41
2023-08-12T13:17:39.953Z,99612.38
2023-08-12T13:20:07.530Z,99617.00
2023-08-12T13:22:34.443Z,99613.22
2023-08-12T13:25:01.388Z,99621.41
2023-08-12T13:27:29.000Z,99616.19
2023-08-12T13:29:55.872Z,99615.13
2023-08-12T13:32:23.309Z,99620.91
2023-08-12T13:34:50.242Z,99613.66
2023-08-12T13:37:17.188Z,99610.69
2023-08-12T13:39:44.153Z,99609.31
2023-08-12T13:42:11.345Z,99615.13
2023-08-12T13:44:38.589Z,99613.78
2023-08-12T13:47:05.559Z,99624.31
2023-08-12T13:49:33.023Z,99612.09
2023-08-12T13:52:02.730Z,99609.97
2023-08-12T13:54:29.688Z,99616.66
2023-08-12T13:56:56.520Z,99612.97
2023-08-12T13:59:23.470Z,99617.53
2023-08-12T14:01:50.347Z,99625.13
2023-08-12T14:04:17.270Z,99632.19
2023-08-12T14:06:44.900Z,99619.69
2023-08-12T14:09:14.935Z,99620.28
2023-08-12T14:11:41.941Z,99623.47
2023-08-12T14:14:08.981Z,99624.75
2023-08-12T14:16:36.968Z,99626.13
2023-08-12T14:19:04.226Z,99628.47
2023-08-12T14:21:31.210Z,99631.38
2023-08-12T14:23:58.241Z,99622.41
2023-08-12T14:26:25.348Z,99613.78
2023-08-12T14:28:52.227Z,99609.38
2023-08-12T14:31:20.204Z,99613.84
2023-08-12T14:33:47.026Z,99620.63
2023-08-12T14:36:13.901Z,99621.50
2023-08-12T14:38:40.770Z,99617.31
2023-08-12T14:41:07.776Z,99623.34
2023-08-12T14:43:34.625Z,99623.38
2023-08-12T14:46:01.616Z,99612.31
2023-08-12T14:48:28.495Z,99611.69
2023-08-12T14:50:56.843Z,99620.81
2023-08-12T14:53:23.809Z,99617.44
2023-08-12T14:55:50.586Z,99618.00
2023-08-12T14:58:17.570Z,99625.91
2023-08-12T15:00:44.513Z,99622.00
2023-08-12T15:03:12.855Z,99629.94
2023-08-12T15:05:39.797Z,99626.94
2023-08-12T15:08:06.915Z,99631.69
2023-08-12T15:10:34.182Z,99635.63
2023-08-12T15:13:01.018Z,99633.19
2023-08-12T15:15:27.825Z,99625.84
2023-08-12T15:17:54.754Z,99628.00
2023-08-12T15:20:21.735Z,99630.88
2023-08-12T15:22:48.703Z,99633.78
2023-08-12T15:25:15.650Z,99629.03
2023-08-12T15:27:42.497Z,99624.53
2023-08-12T15:30:09.701Z,99635.63
2023-08-12T15:32:39.373Z,99639.03
2023-08-12T15:35:07.845Z,99640.63
2023-08-12T15:37:35.199Z,99640.41
2023-08-12T15:40:02.224Z,99639.56
2023-08-12T15:42:29.087Z,99637.00
2023-08-12T15:44:55.936Z,99641.03
2023-08-12T15:47:22.842Z,99639.75
2023-08-12T15:49:49.652Z,99640.78
2023-08-12T15:52:16.563Z,99643.75
2023-08-12T15:54:43.376Z,99644.63
2023-08-12T15:57:11.571Z,99642.88
2023-08-12T15:59:38.929Z,99641.09
2023-08-12T16:02:05.822Z,99642.66
2023-08-12T16:04:33.208Z,99636.25
2023-08-12T16:07:00.082Z,99638.97
2023-08-12T16:09:26.978Z,99640.69
2023-08-12T16:11:55.495Z,99643.78
2023-08-12T16:14:22.459Z,99629.41
2023-08-12T16:16:49.324Z,99631.13
2023-08-12T16:19:16.155Z,99648.78
2023-08-12T16:21:43.026Z,99645.06
2023-08-12T16:24:09.882Z,99644.22
2023-08-12T16:26:36.689Z,99643.81
2023-08-12T16:29:03.610Z,99654.31
2023-08-12T16:31:32.089Z,99656.34
2023-08-12T16:33:59.811Z,99654.63
2023-08-12T16:36:26.656Z,99654.69
2023-08-12T16:38:53.566Z,99661.41
2023-08-12T16:41:20.490Z,99664.28
2023-08-12T16:43:47.445Z,99667.13
2023-08-12T16:46:14.261Z,99674.41
2023-08-12T16:48:41.061Z,99678.25
2023-08-12T16:51:08.005Z,99678.00
2023-08-12T16:53:34.897Z,99673.50
2023-08-12T16:56:01.760Z,99681.25
2023-08-12T16:58:28.741Z,99685.06
2023-08-12T17:00:55.765Z,99680.72
2023-08-12T17:03:22.624Z,99690.09
2023-08-12T17:05:49.585Z,99689.78
2023-08-12T17:08:16.499Z,99696.91
2023-08-12T17:10:43.337Z,99693.28
2023-08-12T17:13:10.279Z,99708.31
2023-08-12T17:15:37.160Z,99708.44
2023-08-12T17:18:04.613Z,99712.44
2023-08-12T17:20:31.530Z,99715.38
2023-08-12T17:22:58.464Z,99722.59
2023-08-12T17:25:25.462Z,99714.69
2023-08-12T17:27:52.590Z,99716.09
2023-08-12T17:30:19.926Z,99724.25
2023-08-12T17:32:46.994Z,99727.53
2023-08-12T17:35:14.158Z,99733.91
2023-08-12T17:37:41.788Z,99737.59
2023-08-12T17:40:11.804Z,99737.59
2023-08-12T17:42:38.916Z,99739.13
2023-08-12T17:45:07.191Z,99746.84
2023-08-12T17:47:34.733Z,99739.84
2023-08-12T17:50:01.739Z,99750.38
2023-08-12T17:52:28.528Z,99746.78
2023-08-12T17:54:55.405Z,99746.56
2023-08-12T17:57:22.430Z,99747.94
2023-08-12T17:59:49.442Z,99756.91
2023-08-12T18:02:16.555Z,99753.16
2023-08-12T18:04:43.828Z,99755.41
2023-08-12T18:07:10.939Z,99755.59
2023-08-12T18:09:37.793Z,99755.78
2023-08-12T18:12:04.820Z,99753.34
2023-08-12T18:14:31.728Z,99754.31
2023-08-12T18:16:58.740Z,99750.06
2023-08-12T18:19:25.867Z,99757.91
2023-08-12T18:21:53.024Z,99748.84
2023-08-12T18:24:19.973Z,99763.00
2023-08-12T18:26:47.027Z,99762.03
2023-08-12T18:29:13.949Z,99763.41
2023-08-12T18:31:40.937Z,99765.84
2023-08-12T18:34:07.836Z,99768.34
2023-08-12T18:36:34.894Z,99765.66
2023-08-12T18:39:01.852Z,99766.91
2023-08-12T18:41:28.929Z,99758.63
2023-08-12T18:43:55.774Z,99764.72
2023-08-12T18:46:22.687Z,99771.69
2023-08-12T18:48:49.748Z,99770.47
2023-08-12T18:51:17.154Z,99782.56
2023-08-12T18:53:44.261Z,99773.16
2023-08-12T18:56:11.147Z,99776.47
2023-08-12T18:58:38.071Z,99774.13
2023-08-12T19:01:05.018Z,99771.56
2023-08-12T19:03:32.092Z,99770.13
2023-08-12T19:06:00.433Z,99770.13
2023-08-12T19:08:27.981Z,99772.28
2023-08-12T19:10:59.139Z,99776.94
2023-08-12T19:13:26.667Z,99780.47
2023-08-12T19:15:55.187Z,99778.53
2023-08-12T19:18:26.973Z,99781.41
2023-08-12T19:20:53.950Z,99780.81
2023-08-12T19:23:21.347Z,99774.72
2023-08-12T19:25:48.359Z,99779.19
2023-08-12T19:28:15.340Z,99775.16
2023-08-12T19:30:42.342Z,99773.94
2023-08-12T19:33:09.265Z,99770.78
2023-08-12T19:35:36.437Z,99774.88
2023-08-12T19:38:03.369Z,99771.56
2023-08-12T19:40:30.612Z,99767.56
2023-08-12T19:42:57.561Z,99777.31
2023-08-12T19:45:24.697Z,99775.97
2023-08-12T19:47:51.568Z,99779.72
2023-08-12T19:50:18.509Z,99780.44
2023-08-12T19:52:45.444Z,99784.59
2023-08-12T19:55:12.486Z,99781.41
2023-08-12T19:57:40.174Z,99787.59
2023-08-12T20:00:10.840Z,99788.06
2023-08-12T20:02:42.900Z,99791.44
2023-08-12T20:05:15.381Z,99790.09
2023-08-12T20:07:43.472Z,99797.00
2023-08-12T20:10:11.407Z,99791.66
2023-08-12T20:12:38.470Z,99793.47
2023-08-12T20:15:09.384Z,99782.41
2023-08-12T20:17:36.627Z,99790.03
2023-08-12T20:20:06.065Z,99787.41
2023-08-12T20:22:32.866Z,99791.59
2023-08-12T20:24:59.838Z,99789.47
2023-08-12T20:27:26.922Z,99786.25
2023-08-12T20:29:53.837Z,99792.94
2023-08-12T20:32:20.785Z,99798.53
2023-08-12T20:34:47.563Z,99795.66
2023-08-12T20:37:14.604Z,99793.31
2023-08-12T20:39:41.622Z,99787.78
2023-08-12T20:42:08.747Z,99793.47
2023-08-12T20:44:35.628Z,99798.94
2023-08-12T20:47:02.383Z,99798.09
2023-08-12T20:49:29.469Z,99796.94
2023-08-12T20:51:56.318Z,99801.09
2023-08-12T20:54:23.890Z,99799.91
2023-08-12T20:56:52.083Z,99796.59
2023-08-12T20:59:18.850Z,99797.72
2023-08-12T21:01:45.970Z,99807.88
2023-08-12T21:04:12.830Z,99804.22
2023-08-12T21:06:39.789Z,99806.81
2023-08-12T21:09:07.092Z,99803.38
2023-08-12T21:11:34.121Z,99809.06
2023-08-12T21:14:00.925Z,99809.59
2023-08-12T21:16:27.797Z,99805.28
2023-08-12T21:18:54.867Z,99808.06
2023-08-12T21:21:21.794Z,99805.97
2023-08-12T21:23:48.659Z,99803.78
2023-08-12T21:26:15.739Z,99806.56
2023-08-12T21:28:42.675Z,99804.94
2023-08-12T21:31:11.182Z,99807.94
2023-08-12T21:33:38.020Z,99803.13
2023-08-12T21:36:06.437Z,99808.47
2023-08-12T21:38:33.249Z,99814.66
2023-08-12T21:41:00.057Z,99806.94
2023-08-12T21:43:26.892Z,99809.50
2023-08-12T21:45:53.830Z,99806.19
2023-08-12T21:48:20.674Z,99805.31
2023-08-12T21:50:47.532Z,99804.75
2023-08-12T21:53:14.343Z,99807.75
2023-08-12T21:55:41.156Z,99813.94
2023-08-12T21:58:07.957Z,99817.91
2023-08-12T22:00:34.939Z,99815.69
2023-08-12T22:03:01.934Z,99814.06
2023-08-12T22:05:28.889Z,99822.19
2023-08-12T22:07:55.737Z,99825.72
2023-08-12T22:10:22.621Z,99828.47
2023-08-12T22:12:49.597Z,99832.94
2023-08-12T22:15:16.709Z,99827.22
2023-08-12T22:17:45.499Z,99831.22
2023-08-12T22:20:14.952Z,99834.66
2023-08-12T22:22:42.369Z,99842.63
2023-08-12T22:25:09.507Z,99837.00
2023-08-12T22:27:36.307Z,99835.00
2023-08-12T22:30:06.146Z,99827.91
2023-08-12T22:32:33.306Z,99837.66
2023-08-12T22:35:00.158Z,99842.41
2023-08-12T22:37:27.132Z,99845.75
2023-08-12T22:39:53.999Z,99841.91
2023-08-12T22:42:20.840Z,99834.34
2023-08-12T22:44:47.714Z,99843.59
2023-08-12T22:47:14.576Z,99839.16
2023-08-12T22:49:41.357Z,99838.75
2023-08-12T22:52:08.322Z,99839.50
2023-08-12T22:54:35.231Z,99846.00
2023-08-12T22:57:02.126Z,99842.56
2023-08-12T22:59:29.037Z,99844.91
2023-08-12T23:01:55.954Z,99842.41
2023-08-12T23:04:22.952Z,99843.00
2023-08-12T23:06:49.891Z,99841.03
2023-08-12T23:09:16.961Z,99846.06
2023-08-12T23:11:43.992Z,99846.44
2023-08-12T23:14:10.901Z,99840.22
2023-08-12T23:16:38.121Z,99846.84
2023-08-12T23:19:05.103Z,99846.97
2023-08-12T23:21:32.014Z,99844.41
2023-08-12T23:23:58.853Z,99841.06
2023-08-12T23:26:25.696Z,99847.38
2023-08-12T23:28:52.640Z,99845.56
2023-08-12T23:31:19.573Z,99855.34
2023-08-12T23:33:46.565Z,99853.53
2023-08-12T23:36:13.516Z,99852.63
2023-08-12T23:38:40.396Z,99849.09
2023-08-12T23:41:07.310Z,99857.94
2023-08-12T23:43:34.198Z,99852.09
2023-08-12T23:46:01.596Z,99859.38
2023-08-12T23:48:28.490Z,99854.75
2023-08-12T23:50:55.366Z,99858.88
2023-08-12T23:53:22.250Z,99858.53
2023-08-12T23:55:49.135Z,99854.94
2023-08-12T23:58:16.599Z,99850.28
